createdAt,value
2022-09-21T00:03:02.233Z,7.53
2022-09-21T00:08:06.856Z,7.50
2022-09-21T00:13:08.900Z,7.48
2022-09-21T00:18:14.677Z,7.43
2022-09-21T00:23:16.705Z,7.36
2022-09-21T00:28:18.439Z,7.29
2022-09-21T00:33:20.169Z,7.24
2022-09-21T00:38:22.200Z,7.26
2022-09-21T00:43:23.979Z,7.31
2022-09-21T00:48:25.760Z,7.38
2022-09-21T00:53:28.457Z,7.43
2022-09-21T00:58:34.041Z,7.48
2022-09-21T01:03:35.837Z,7.55
2022-09-21T01:08:38.426Z,7.61
2022-09-21T01:14:13.962Z,7.67
2022-09-21T01:19:50.127Z,7.76
2022-09-21T01:25:10.207Z,7.85
2022-09-21T01:30:18.950Z,7.87
2022-09-21T01:35:33.139Z,7.84
2022-09-21T01:40:39.862Z,7.82
2022-09-21T01:45:49.113Z,7.84
2022-09-21T01:50:55.624Z,7.90
2022-09-21T01:56:03.189Z,7.98
2022-09-21T02:01:14.132Z,8.03
2022-09-21T02:06:18.780Z,8.06
2022-09-21T02:11:20.732Z,8.04
2022-09-21T02:16:44.465Z,8.04
2022-09-21T02:22:06.059Z,8.03
2022-09-21T02:27:35.398Z,8.04
2022-09-21T02:32:54.521Z,8.05
2022-09-21T02:38:36.906Z,8.06
2022-09-21T02:43:47.417Z,8.03
2022-09-21T02:48:53.892Z,8.03
2022-09-21T02:53:57.081Z,8.01
2022-09-21T02:59:04.625Z,7.98
2022-09-21T03:04:06.864Z,7.98
2022-09-21T03:09:08.993Z,7.96
2022-09-21T03:14:10.864Z,7.93
2022-09-21T03:19:12.783Z,7.91
2022-09-21T03:24:34.742Z,7.88
2022-09-21T03:29:43.587Z,7.88
2022-09-21T03:34:51.912Z,7.89
2022-09-21T03:40:08.048Z,7.90
2022-09-21T03:45:11.815Z,7.87
2022-09-21T03:50:14.839Z,7.88
2022-09-21T03:55:17.340Z,7.93
2022-09-21T04:00:20.390Z,7.92
2022-09-21T04:05:29.289Z,7.87
2022-09-21T04:10:33.408Z,7.86
2022-09-21T04:15:36.876Z,7.86
2022-09-21T04:20:38.816Z,7.84
2022-09-21T04:25:46.588Z,7.85
2022-09-21T04:30:48.411Z,7.84
2022-09-21T04:35:57.005Z,7.82
2022-09-21T04:40:59.107Z,7.80
2022-09-21T04:46:09.632Z,7.78
2022-09-21T04:51:12.782Z,7.78
2022-09-21T04:56:16.619Z,7.76
2022-09-21T05:01:18.591Z,7.76
2022-09-21T05:06:20.786Z,7.75
2022-09-21T05:11:22.943Z,7.74
2022-09-21T05:16:24.701Z,7.82
2022-09-21T05:21:26.777Z,7.89
2022-09-21T05:26:28.596Z,7.99
2022-09-21T05:31:56.076Z,8.00
2022-09-21T05:37:10.260Z,8.05
2022-09-21T05:42:19.988Z,8.06
2022-09-21T05:47:39.700Z,8.11
2022-09-21T05:53:20.386Z,8.18
2022-09-21T05:58:48.308Z,8.23
2022-09-21T06:03:50.353Z,8.31
2022-09-21T06:08:52.288Z,8.44
2022-09-21T06:13:54.681Z,8.55
2022-09-21T06:18:56.691Z,8.59
2022-09-21T06:24:05.917Z,8.58
2022-09-21T06:29:23.453Z,8.63
2022-09-21T06:34:25.276Z,8.60
2022-09-21T06:39:27.282Z,8.56
2022-09-21T06:44:30.162Z,8.54
2022-09-21T06:49:31.953Z,8.56
2022-09-21T06:54:33.724Z,8.63
2022-09-21T06:59:37.736Z,8.72
2022-09-21T07:04:39.956Z,9.02
2022-09-21T07:15:07.181Z,9.33
2022-09-21T07:20:09.173Z,9.29
2022-09-21T07:25:11.793Z,9.21
2022-09-21T07:30:13.672Z,9.20
2022-09-21T07:35:15.390Z,9.13
2022-09-21T07:40:36.911Z,9.15
2022-09-21T07:45:57.430Z,9.25
2022-09-21T07:51:06.745Z,9.22
2022-09-21T07:56:11.686Z,9.20
2022-09-21T08:01:27.568Z,9.38
2022-09-21T08:06:32.951Z,9.54
2022-09-21T08:11:54.889Z,9.62
2022-09-21T08:16:56.622Z,9.69
2022-09-21T08:21:58.979Z,9.67
2022-09-21T08:27:01.675Z,9.63
2022-09-21T08:32:04.210Z,9.84
2022-09-21T08:37:06.734Z,10.11
2022-09-21T08:42:08.512Z,10.19
2022-09-21T08:47:35.662Z,10.28
2022-09-21T08:52:37.748Z,10.52
2022-09-21T08:57:39.663Z,10.90
2022-09-21T09:02:56.587Z,10.86
2022-09-21T09:08:26.424Z,10.85
2022-09-21T09:13:57.044Z,10.80
2022-09-21T09:19:15.844Z,10.98
2022-09-21T09:24:33.705Z,11.14
2022-09-21T09:29:53.022Z,11.35
2022-09-21T09:35:25.903Z,11.50
2022-09-21T09:40:47.366Z,11.73
2022-09-21T09:46:21.953Z,11.61
2022-09-21T09:51:40.749Z,11.70
2022-09-21T09:56:43.270Z,11.86
2022-09-21T10:01:47.330Z,11.90
2022-09-21T10:06:49.471Z,12.02
2022-09-21T10:11:53.149Z,12.30
2022-09-21T10:16:56.341Z,12.44
2022-09-21T10:22:00.974Z,12.36
2022-09-21T10:27:40.991Z,12.16
2022-09-21T10:32:56.961Z,12.07
2022-09-21T10:38:27.438Z,12.00
2022-09-21T10:43:43.693Z,12.20
2022-09-21T10:48:46.651Z,12.04
2022-09-21T10:53:53.896Z,12.05
2022-09-21T10:59:22.366Z,12.45
2022-09-21T11:04:40.979Z,12.90
2022-09-21T11:09:58.742Z,13.55
2022-09-21T11:15:20.570Z,13.94
2022-09-21T11:20:34.927Z,13.83
2022-09-21T11:26:01.149Z,14.03
2022-09-21T11:31:37.159Z,14.66
2022-09-21T11:37:10.974Z,15.39
2022-09-21T11:42:36.093Z,15.47
2022-09-21T11:47:49.728Z,16.05
2022-09-21T11:53:11.230Z,16.17
2022-09-21T11:58:31.573Z,15.56
2022-09-21T12:04:11.139Z,15.15
2022-09-21T12:09:34.363Z,15.68
2022-09-21T12:14:50.298Z,16.43
2022-09-21T12:20:20.975Z,16.75
2022-09-21T12:25:29.685Z,16.45
2022-09-21T12:30:33.679Z,15.78
2022-09-21T12:35:44.434Z,15.73
2022-09-21T12:40:54.474Z,15.75
2022-09-21T12:46:29.586Z,15.82
2022-09-21T12:51:36.974Z,16.18
2022-09-21T12:56:51.595Z,16.31
2022-09-21T13:02:12.433Z,16.31
2022-09-21T13:07:34.011Z,15.76
2022-09-21T13:12:57.441Z,15.41
2022-09-21T13:18:05.897Z,15.48
2022-09-21T13:23:17.405Z,15.56
2022-09-21T13:28:21.639Z,15.71
2022-09-21T13:33:23.927Z,15.12
2022-09-21T13:38:41.199Z,14.63
2022-09-21T13:44:05.878Z,14.50
2022-09-21T13:49:11.414Z,15.09
2022-09-21T13:54:14.445Z,15.55
2022-09-21T13:59:24.558Z,15.54
2022-09-21T14:04:37.215Z,15.28
2022-09-21T14:09:57.831Z,15.45
2022-09-21T14:15:22.772Z,15.86
2022-09-21T14:20:37.154Z,14.53
2022-09-21T14:25:49.015Z,12.82
2022-09-21T14:30:58.264Z,11.63
2022-09-21T14:36:05.625Z,10.98
2022-09-21T14:41:08.092Z,10.72
2022-09-21T14:46:12.751Z,10.55
2022-09-21T14:51:25.225Z,10.50
2022-09-21T14:56:56.771Z,10.46
2022-09-21T15:02:29.193Z,10.39
2022-09-21T15:07:54.809Z,10.30
2022-09-21T15:13:19.189Z,10.15
2022-09-21T15:18:22.519Z,10.05
2022-09-21T15:23:25.277Z,9.96
2022-09-21T15:28:57.936Z,9.89
2022-09-21T15:33:57.311Z,9.92
2022-09-21T15:39:01.651Z,9.99
2022-09-21T15:44:21.529Z,9.98
2022-09-21T15:49:23.968Z,9.93
2022-09-21T15:54:35.819Z,9.88
2022-09-21T15:59:55.949Z,9.79
2022-09-21T16:04:57.949Z,9.80
2022-09-21T16:10:01.015Z,9.96
2022-09-21T16:15:25.353Z,10.03
2022-09-21T16:20:42.935Z,10.10
2022-09-21T16:25:52.717Z,10.09
2022-09-21T16:30:56.693Z,10.03
2022-09-21T16:35:59.062Z,9.93
2022-09-21T16:41:02.676Z,9.86
2022-09-21T16:46:06.093Z,9.79
2022-09-21T16:51:17.911Z,9.71
2022-09-21T16:56:20.295Z,9.61
2022-09-21T17:01:22.190Z,9.51
2022-09-21T17:06:24.146Z,9.45
2022-09-21T17:11:26.122Z,9.41
2022-09-21T17:16:28.008Z,9.41
2022-09-21T17:21:31.399Z,9.38
2022-09-21T17:26:34.728Z,9.32
2022-09-21T17:31:38.847Z,9.25
2022-09-21T17:36:40.970Z,9.13
2022-09-21T17:41:57.889Z,9.01
2022-09-21T17:47:17.881Z,8.85
2022-09-21T17:52:41.260Z,8.68
2022-09-21T17:58:20.641Z,8.55
2022-09-21T18:03:26.365Z,8.46
2022-09-21T18:08:36.120Z,8.37
2022-09-21T18:13:54.199Z,8.31
2022-09-21T18:19:26.083Z,8.23
2022-09-21T18:24:33.900Z,8.07
2022-09-21T18:29:39.743Z,7.95
2022-09-21T18:34:57.936Z,7.88
2022-09-21T18:40:36.947Z,7.79
2022-09-21T18:45:55.609Z,7.60
2022-09-21T18:51:04.886Z,7.51
2022-09-21T18:56:08.521Z,7.41
2022-09-21T19:01:13.086Z,7.43
2022-09-21T19:06:52.927Z,7.43
2022-09-21T19:12:05.326Z,7.40
2022-09-21T19:17:25.964Z,7.35
2022-09-21T19:22:53.236Z,7.44
2022-09-21T19:28:01.575Z,7.50
2022-09-21T19:33:48.344Z,7.46
2022-09-21T19:38:48.112Z,7.36
2022-09-21T19:44:12.958Z,7.36
2022-09-21T19:49:20.070Z,7.32
2022-09-21T19:54:43.422Z,7.28
2022-09-21T19:59:46.013Z,7.39
2022-09-21T20:05:20.276Z,7.54
2022-09-21T20:10:28.066Z,7.72
2022-09-21T20:15:48.251Z,7.85
2022-09-21T20:20:50.253Z,7.92
2022-09-21T20:26:03.511Z,7.96
2022-09-21T20:31:05.309Z,8.02
2022-09-21T20:36:09.327Z,8.09
2022-09-21T20:41:16.624Z,8.15
2022-09-21T20:46:19.106Z,8.21
2022-09-21T20:51:21.378Z,8.26
2022-09-21T20:56:24.373Z,8.31
2022-09-21T21:01:27.007Z,8.35
2022-09-21T21:06:31.338Z,8.40
2022-09-21T21:11:33.102Z,8.39
2022-09-21T21:16:34.953Z,8.41
2022-09-21T21:21:36.906Z,8.43
2022-09-21T21:27:00.625Z,8.43
2022-09-21T21:32:14.830Z,8.44
2022-09-21T21:37:18.619Z,8.44
2022-09-21T21:42:21.088Z,8.44
2022-09-21T21:47:40.526Z,8.43
2022-09-21T21:52:45.219Z,8.38
2022-09-21T21:57:47.079Z,8.29
2022-09-21T22:02:48.852Z,8.13
2022-09-21T22:07:50.756Z,7.92
2022-09-21T22:12:52.754Z,7.76
2022-09-21T22:17:54.421Z,7.70
2022-09-21T22:22:56.164Z,7.59
2022-09-21T22:27:58.493Z,7.47
2022-09-21T22:33:00.476Z,7.37
2022-09-21T22:38:02.275Z,7.23
2022-09-21T22:43:04.029Z,7.17
2022-09-21T22:48:05.818Z,7.25
2022-09-21T22:53:07.630Z,7.21
2022-09-21T22:58:10.059Z,7.13
2022-09-21T23:03:25.948Z,7.03
2022-09-21T23:08:28.872Z,6.91
2022-09-21T23:13:30.601Z,6.82
2022-09-21T23:18:37.166Z,6.84
2022-09-21T23:23:39.652Z,6.93
2022-09-21T23:28:53.851Z,7.11
2022-09-21T23:34:02.814Z,7.22
2022-09-21T23:39:07.264Z,7.18
2022-09-21T23:44:09.519Z,7.13
2022-09-21T23:49:11.485Z,7.03
2022-09-21T23:54:15.158Z,7.02
2022-09-21T23:59:16.857Z,6.94
